Weather History for KMWM - March, 2014

Change the Weather History Date:

Wednesday, March 12, 2014

  Actual Average Record
Temperature  
Mean Temperature 26 °F -  
Max Temperature 30 °F 39 °F 68 °F (2015)
Min Temperature 23 °F 21 °F -18 °F (1956)
Degree Days  
Heating Degree Days 38    
Moisture  
Dew Point 20 °F    
Average Humidity 76    
Maximum Humidity 93    
Minimum Humidity 64    
Precipitation  
Precipitation 0.00 in - - ()
Sea Level Pressure  
Sea Level Pressure 30.08 in    
Wind  
Wind Speed 15 mph (NW)    
Max Wind Speed 28 mph    
Max Gust Speed 33 mph    
Visibility 10 miles    
Events Snow    
Averages and records for this station are not official NWS values.
T = Trace of Precipitation, MM = Missing Value Source: NWS Daily Summary

Daily Weather History Graph

Daily Weather History Graph

Search for Another Location

Airport or City:

Trip Planner

Search our weather history database for the weather conditions in past years. The results will help you decide how hot, cold, wet, or windy it might be!

Date:

Astronomy

Mar. 12, 2014 Rise Set
Actual Time 7:37 AM CDT 7:22 PM CDT
Civil Twilight 7:09 AM CDT 7:51 PM CDT
Nautical Twilight 6:35 AM CDT 8:25 PM CDT
Astronomical Twilight 6:02 AM CDT 8:59 PM CDT
Moon 3:48 PM CDT (3/12) 5:16 AM CDT (3/12)
Length of Visible Light 12h 42m
Length of Day
11h 44m
Waxing Gibbous, 85% of the Moon is Illuminated
Mar 12
Waxing Gibbous
Mar 16
Full
Mar 23
Last Quarter
Mar 30
New
Apr 7
First Quarter

Hourly Weather History & Observations

Time (CDT) Temp. Windchill Dew Point Humidity Pressure Visibility Wind Dir Wind Speed Gust Speed Precip Events Conditions
12:12 AM 28.4 °F 14.1 °F 23.0 °F 80% 30.06 in 10.0 mi NNW 24.2 mph - N/A   Clear
12:32 AM 28.4 °F 14.7 °F 23.0 °F 80% 30.06 in 10.0 mi NNW 21.9 mph 28.8 mph N/A   Clear
12:52 AM 28.4 °F 13.5 °F 21.2 °F 74% 30.06 in 10.0 mi NNW 26.5 mph 31.1 mph N/A   Clear
1:12 AM 26.6 °F 10.8 °F 21.2 °F 80% 30.06 in 10.0 mi NNW 27.6 mph 33.4 mph N/A   Clear
1:33 AM 26.6 °F 13.1 °F 21.2 °F 80% 30.06 in 10.0 mi NNW 19.6 mph - N/A   Clear
1:52 AM 26.6 °F 11.7 °F 21.2 °F 80% 30.06 in 10.0 mi NNW 24.2 mph 31.1 mph N/A   Clear
2:12 AM 26.6 °F 12.0 °F 19.4 °F 74% 30.06 in 10.0 mi NNW 23.0 mph 27.6 mph N/A   Clear
2:33 AM 26.6 °F 11.7 °F 19.4 °F 74% 30.07 in 10.0 mi NNW 24.2 mph - N/A   Clear
2:52 AM 24.8 °F 9.0 °F 19.4 °F 80% 30.06 in 10.0 mi NNW 25.3 mph 28.8 mph N/A   Clear
3:12 AM 24.8 °F 9.3 °F 17.6 °F 74% 30.07 in 10.0 mi NNW 24.2 mph - N/A   Clear
3:33 AM 24.8 °F 10.3 °F 17.6 °F 74% 30.08 in 10.0 mi NNW 20.7 mph - N/A   Clear
3:52 AM 24.8 °F 9.6 °F 17.6 °F 74% 30.07 in 10.0 mi NNW 23.0 mph 27.6 mph N/A   Clear
4:12 AM 24.8 °F 10.7 °F 17.6 °F 74% 30.07 in 10.0 mi NNW 19.6 mph 23.0 mph N/A   Scattered Clouds
4:32 AM 24.8 °F 10.7 °F 17.6 °F 74% 30.08 in 10.0 mi NNW 19.6 mph 23.0 mph N/A   Scattered Clouds
4:52 AM 24.8 °F 11.9 °F 17.6 °F 74% 30.08 in 10.0 mi NNW 16.1 mph 21.9 mph N/A   Mostly Cloudy
5:13 AM 24.8 °F 11.1 °F 15.8 °F 69% 30.08 in 10.0 mi North 18.4 mph - N/A   Overcast
5:32 AM 24.8 °F 11.5 °F 15.8 °F 69% 30.09 in 10.0 mi NNW 17.3 mph - N/A   Overcast
5:52 AM 24.8 °F 14.6 °F 17.6 °F 74% 30.09 in 10.0 mi North 10.4 mph - N/A   Overcast
6:13 AM 23.0 °F 10.1 °F 15.8 °F 74% 30.09 in 10.0 mi NNW 15.0 mph 19.6 mph N/A   Overcast
6:32 AM 24.8 °F 12.9 °F 15.8 °F 69% 30.09 in 10.0 mi NNW 13.8 mph - N/A   Overcast
6:52 AM 23.0 °F 10.6 °F 15.8 °F 74% 30.10 in 10.0 mi North 13.8 mph - N/A   Overcast
7:13 AM 24.8 °F 11.9 °F 17.6 °F 74% 30.11 in 10.0 mi NNW 16.1 mph - N/A Snow Light Snow
7:32 AM 23.0 °F 11.1 °F 17.6 °F 80% 30.10 in 10.0 mi NNW 12.7 mph - N/A   Overcast
7:52 AM 23.0 °F 10.6 °F 15.8 °F 74% 30.11 in 7.0 mi NNW 13.8 mph - N/A Snow Light Snow
8:13 AM 23.0 °F 11.1 °F 17.6 °F 80% 30.11 in 10.0 mi NNW 12.7 mph - N/A   Overcast
8:32 AM 23.0 °F 11.7 °F 17.6 °F 80% 30.12 in 10.0 mi NNW 11.5 mph - N/A   Overcast
8:52 AM 24.8 °F 14.0 °F 15.8 °F 69% 30.11 in 10.0 mi NNW 11.5 mph - N/A   Overcast
9:13 AM 24.8 °F 14.0 °F 17.6 °F 74% 30.12 in 10.0 mi NNW 11.5 mph - N/A Snow Light Snow
9:32 AM 24.8 °F 14.0 °F 17.6 °F 74% 30.12 in 10.0 mi NNW 11.5 mph - N/A   Overcast
9:52 AM 24.8 °F 13.4 °F 17.6 °F 74% 30.12 in 10.0 mi North 12.7 mph - N/A   Overcast
10:13 AM 24.8 °F 14.6 °F 17.6 °F 74% 30.13 in 10.0 mi NNW 10.4 mph - N/A   Overcast
10:32 AM 26.6 °F 16.8 °F 17.6 °F 69% 30.13 in 10.0 mi NNW 10.4 mph - N/A   Overcast
10:52 AM 26.6 °F 19.1 °F 17.6 °F 69% 30.12 in 10.0 mi NNW 6.9 mph - N/A   Overcast
11:13 AM 26.6 °F 18.2 °F 15.8 °F 64% 30.12 in 10.0 mi NW 8.1 mph - N/A   Overcast
11:32 AM 26.6 °F 18.2 °F 15.8 °F 64% 30.11 in 10.0 mi NW 8.1 mph - N/A   Overcast
11:52 AM 26.6 °F 18.2 °F 15.8 °F 64% 30.12 in 10.0 mi NNW 8.1 mph - N/A   Overcast
12:12 PM 26.6 °F 20.0 °F 15.8 °F 64% 30.12 in 10.0 mi NNW 5.8 mph - N/A   Overcast
12:32 PM 26.6 °F 20.0 °F 17.6 °F 69% 30.12 in 10.0 mi NW 5.8 mph - N/A   Overcast
12:53 PM 26.6 °F 21.2 °F 15.8 °F 64% 30.12 in 10.0 mi NW 4.6 mph - N/A   Overcast
1:12 PM 26.6 °F 22.6 °F 15.8 °F 64% 30.12 in 10.0 mi NW 3.5 mph - N/A   Overcast
1:32 PM 26.6 °F - 17.6 °F 69% 30.12 in 10.0 mi Calm Calm - N/A   Overcast
1:53 PM 28.4 °F 24.6 °F 19.4 °F 69% 30.11 in 10.0 mi NW 3.5 mph - N/A   Overcast
2:12 PM 26.6 °F 22.6 °F 19.4 °F 74% 30.11 in 10.0 mi NW 3.5 mph - N/A   Overcast
2:32 PM 26.6 °F 22.6 °F 17.6 °F 69% 30.10 in 10.0 mi NNW 3.5 mph - N/A   Overcast
2:53 PM 28.4 °F - 17.6 °F 64% 30.10 in 10.0 mi Calm Calm - N/A   Overcast
3:12 PM 28.4 °F 24.6 °F 19.4 °F 69% 30.10 in 10.0 mi West 3.5 mph - N/A   Overcast
3:32 PM 28.4 °F 20.4 °F 21.2 °F 74% 30.09 in 10.0 mi West 8.1 mph - N/A   Overcast
3:53 PM 28.4 °F 20.4 °F 21.2 °F 74% 30.09 in 10.0 mi WSW 8.1 mph - N/A   Overcast
4:12 PM 28.4 °F 22.2 °F 21.2 °F 74% 30.08 in 10.0 mi SW 5.8 mph - N/A   Overcast
4:32 PM 28.4 °F 23.3 °F 21.2 °F 74% 30.07 in 10.0 mi WSW 4.6 mph - N/A   Overcast
4:53 PM 28.4 °F 23.3 °F 23.0 °F 80% 30.07 in 10.0 mi SSW 4.6 mph - N/A   Overcast
5:12 PM 28.4 °F 21.2 °F 23.0 °F 80% 30.06 in 10.0 mi SSW 6.9 mph - N/A   Overcast
5:32 PM 28.4 °F 20.4 °F 23.0 °F 80% 30.06 in 10.0 mi SW 8.1 mph - N/A   Overcast
5:53 PM 30.2 °F 24.3 °F 24.8 °F 80% 30.05 in 10.0 mi SSW 5.8 mph - N/A   Overcast
6:12 PM 30.2 °F 25.4 °F 24.8 °F 80% 30.05 in 10.0 mi SW 4.6 mph - N/A   Overcast
6:32 PM 30.2 °F 24.3 °F 24.8 °F 80% 30.05 in 10.0 mi SW 5.8 mph - N/A   Mostly Cloudy
6:53 PM 30.2 °F 24.3 °F 24.8 °F 80% 30.05 in 10.0 mi SSW 5.8 mph - N/A   Mostly Cloudy
7:12 PM 30.2 °F 26.7 °F 26.6 °F 86% 30.05 in 10.0 mi South 3.5 mph - N/A   Mostly Cloudy
7:32 PM 30.2 °F - 26.6 °F 86% 30.06 in 10.0 mi Calm Calm - N/A   Overcast
7:53 PM 30.2 °F - 26.6 °F 86% 30.06 in 10.0 mi Calm Calm - N/A   Overcast
8:12 PM 30.2 °F 26.7 °F 26.6 °F 86% 30.05 in 10.0 mi SE 3.5 mph - N/A   Overcast
8:32 PM 28.4 °F 23.3 °F 26.6 °F 93% 30.04 in 10.0 mi ESE 4.6 mph - N/A   Scattered Clouds
8:53 PM 30.2 °F 24.3 °F 26.6 °F 86% 30.03 in 10.0 mi ESE 5.8 mph - N/A   Mostly Cloudy
9:12 PM 30.2 °F 22.6 °F 26.6 °F 86% 30.02 in 10.0 mi ESE 8.1 mph - N/A   Overcast
9:32 PM 28.4 °F 21.2 °F 26.6 °F 93% 30.02 in 10.0 mi SE 6.9 mph - N/A   Overcast
9:53 PM 28.4 °F 21.2 °F 26.6 °F 93% 30.02 in 10.0 mi SSE 6.9 mph - N/A   Overcast
10:12 PM 30.2 °F 23.4 °F 26.6 °F 86% 30.02 in 10.0 mi SSE 6.9 mph - N/A   Mostly Cloudy
10:32 PM 30.2 °F 24.3 °F 26.6 °F 86% 30.02 in 10.0 mi South 5.8 mph - N/A   Mostly Cloudy
10:53 PM 30.2 °F 22.6 °F 26.6 °F 86% 30.02 in 10.0 mi South 8.1 mph - N/A   Overcast
11:12 PM 30.2 °F 23.4 °F 26.6 °F 86% 30.01 in 10.0 mi South 6.9 mph - N/A   Overcast
11:32 PM 30.2 °F 23.4 °F 26.6 °F 86% 30.00 in 10.0 mi South 6.9 mph - N/A   Overcast
11:53 PM 30.2 °F 21.3 °F 26.6 °F 86% 29.99 in 10.0 mi South 10.4 mph - N/A   Overcast